Time;durP1;ratioP1;P1;durP2;ratioP2;P2;SDS_P1;SDS_P2;PMS_P1;PMS_P2;Temp;Humidity;BMP_temperature;BMP_pressure;BME280_temperature;BME280_humidity;BME280_pressure;Samples;Min_cycle;Max_cycle;Signal;HPM_P1;HPM_P2
2023/08/22 00:01:27;;;;;;;12.13;6.57;;;;;;;;;;5090166;28;20127;-80
2023/08/22 00:03:56;;;;;;;12.70;6.78;;;;;;;;;;5066264;28;20052;-80
2023/08/22 00:06:23;;;;;;;8.35;5.65;;;;;;;;;;5072438;28;20040;-80
2023/08/22 00:08:49;;;;;;;8.30;6.28;;;;;;;;;;5088573;28;20049;-80
2023/08/22 00:11:15;;;;;;;11.52;7.10;;;;;;;;;;5066463;28;20058;-80
2023/08/22 00:13:41;;;;;;;10.77;6.68;;;;;;;;;;5072312;28;20048;-80
2023/08/22 00:16:07;;;;;;;13.18;7.03;;;;;;;;;;5092152;28;20040;-80
2023/08/22 00:18:33;;;;;;;10.30;7.18;;;;;;;;;;5091483;28;20043;-80
2023/08/22 00:20:59;;;;;;;10.60;6.97;;;;;;;;;;5064641;28;20040;-80
2023/08/22 00:23:25;;;;;;;10.02;6.88;;;;;;;;;;5089853;28;20123;-80
2023/08/22 00:25:52;;;;;;;13.15;6.95;;;;;;;;;;5070126;28;20044;-80
2023/08/22 00:28:18;;;;;;;7.97;6.63;;;;;;;;;;5078573;28;20152;-80
2023/08/22 00:30:44;;;;;;;8.18;6.80;;;;;;;;;;5069331;28;20082;-80
2023/08/22 00:33:10;;;;;;;10.23;7.47;;;;;;;;;;5090116;28;20040;-80
2023/08/22 00:35:36;;;;;;;11.00;6.82;;;;;;;;;;5084380;28;20048;-80
2023/08/22 00:38:02;;;;;;;10.88;6.93;;;;;;;;;;5066639;28;20144;-80
2023/08/22 00:40:28;;;;;;;10.25;7.20;;;;;;;;;;5080017;28;20040;-80
2023/08/22 00:42:54;;;;;;;11.38;7.43;;;;;;;;;;5085179;28;20044;-80
2023/08/22 00:45:20;;;;;;;10.25;7.70;;;;;;;;;;5065881;28;20044;-80
2023/08/22 00:47:46;;;;;;;10.82;7.45;;;;;;;;;;5065244;28;20036;-80
2023/08/22 00:50:12;;;;;;;11.48;7.18;;;;;;;;;;5083443;28;20052;-80
2023/08/22 00:52:39;;;;;;;9.13;7.20;;;;;;;;;;5083785;28;20063;-80
2023/08/22 00:55:05;;;;;;;12.40;7.25;;;;;;;;;;5086002;28;20041;-80
2023/08/22 00:57:31;;;;;;;10.63;6.90;;;;;;;;;;5064649;28;20044;-80
2023/08/22 00:59:58;;;;;;;10.25;7.25;;;;;;;;;;5053804;28;20123;-80
2023/08/22 01:02:24;;;;;;;12.07;7.10;;;;;;;;;;5087425;28;20036;-80
2023/08/22 01:04:50;;;;;;;9.40;7.53;;;;;;;;;;5088435;28;20043;-80
2023/08/22 01:07:27;;;;;;;10.70;7.20;;;;;;;;;;5089148;28;20047;-80
2023/08/22 01:09:56;;;;;;;11.25;7.60;;;;;;;;;;5081695;28;20055;-80
2023/08/22 01:12:25;;;;;;;12.18;7.32;;;;;;;;;;5069738;28;20522;-80
2023/08/22 01:14:56;;;;;;;12.15;8.13;;;;;;;;;;5069052;28;20046;-80
2023/08/22 01:17:22;;;;;;;9.40;7.22;;;;;;;;;;5071673;28;20045;-80
2023/08/22 01:19:48;;;;;;;11.32;7.95;;;;;;;;;;5066373;28;20047;-80
2023/08/22 01:22:15;;;;;;;10.98;7.50;;;;;;;;;;5089295;28;20448;-80
2023/08/22 01:24:41;;;;;;;12.48;8.07;;;;;;;;;;5086549;28;20047;-80
2023/08/22 01:27:09;;;;;;;11.90;7.80;;;;;;;;;;5091054;28;20060;-80
2023/08/22 01:29:39;;;;;;;9.75;7.18;;;;;;;;;;5069839;28;20048;-81
2023/08/22 01:32:24;;;;;;;13.48;8.20;;;;;;;;;;5085440;28;20892;-80
2023/08/22 01:34:52;;;;;;;14.70;8.40;;;;;;;;;;5068531;28;20055;-81
2023/08/22 01:37:21;;;;;;;10.48;7.80;;;;;;;;;;5070391;28;20043;-80
2023/08/22 01:39:48;;;;;;;11.43;7.85;;;;;;;;;;5088720;28;20036;-80
2023/08/22 01:42:14;;;;;;;11.55;8.43;;;;;;;;;;5079252;28;20044;-80
2023/08/22 01:44:40;;;;;;;13.02;8.65;;;;;;;;;;5084214;28;20036;-81
2023/08/22 01:47:06;;;;;;;11.57;8.30;;;;;;;;;;5086523;28;20075;-81
2023/08/22 01:49:36;;;;;;;13.57;8.00;;;;;;;;;;5089013;28;20075;-81
2023/08/22 01:52:02;;;;;;;10.98;7.85;;;;;;;;;;5070262;28;20051;-81
2023/08/22 01:54:28;;;;;;;11.40;8.52;;;;;;;;;;5069907;28;20153;-81
2023/08/22 01:56:55;;;;;;;10.48;8.38;;;;;;;;;;5086709;28;20479;-81
2023/08/22 01:59:21;;;;;;;11.90;8.05;;;;;;;;;;5086757;28;20181;-81
2023/08/22 02:01:47;;;;;;;13.07;8.45;;;;;;;;;;5086043;28;20066;-81
2023/08/22 02:04:13;;;;;;;12.77;8.90;;;;;;;;;;5067684;28;20125;-80
2023/08/22 02:06:39;;;;;;;11.18;8.63;;;;;;;;;;5068875;28;20081;-81
2023/08/22 02:09:06;;;;;;;12.45;8.93;;;;;;;;;;5089277;28;20052;-80
2023/08/22 02:11:32;;;;;;;15.90;9.80;;;;;;;;;;5079205;28;20529;-81
2023/08/22 02:13:59;;;;;;;12.25;9.20;;;;;;;;;;5088210;28;20047;-81
2023/08/22 02:16:25;;;;;;;13.20;9.15;;;;;;;;;;5071158;28;20126;-81
2023/08/22 02:18:54;;;;;;;11.88;8.90;;;;;;;;;;5070336;28;20048;-81
2023/08/22 02:21:20;;;;;;;13.50;9.80;;;;;;;;;;5066651;28;21888;-81
2023/08/22 02:23:46;;;;;;;11.95;9.00;;;;;;;;;;5086885;28;20044;-81
2023/08/22 02:26:12;;;;;;;11.77;8.85;;;;;;;;;;5089814;28;20076;-81
2023/08/22 02:28:42;;;;;;;12.57;9.13;;;;;;;;;;5069848;28;20051;-82
2023/08/22 02:31:08;;;;;;;12.80;9.13;;;;;;;;;;5062251;28;20052;-81
2023/08/22 02:33:34;;;;;;;11.95;9.10;;;;;;;;;;5066062;28;20043;-82
2023/08/22 02:36:00;;;;;;;11.57;8.57;;;;;;;;;;5085267;28;20046;-82
2023/08/22 02:38:26;;;;;;;12.88;9.15;;;;;;;;;;5065307;28;20044;-82
2023/08/22 02:40:52;;;;;;;11.18;8.82;;;;;;;;;;5057443;28;20044;-82
2023/08/22 02:43:18;;;;;;;15.38;9.70;;;;;;;;;;5062884;28;20453;-82
2023/08/22 02:45:48;;;;;;;12.35;9.32;;;;;;;;;;5062139;28;20036;-82
2023/08/22 02:48:14;;;;;;;11.48;9.05;;;;;;;;;;5069023;28;20059;-82
2023/08/22 02:50:40;;;;;;;12.93;9.35;;;;;;;;;;5065043;28;20072;-82
2023/08/22 02:53:06;;;;;;;15.38;9.18;;;;;;;;;;5070678;28;20483;-82
2023/08/22 02:55:32;;;;;;;10.15;8.65;;;;;;;;;;5069944;28;20048;-82
2023/08/22 02:57:59;;;;;;;14.30;9.23;;;;;;;;;;5080775;28;21788;-82
2023/08/22 03:00:25;;;;;;;13.85;8.93;;;;;;;;;;5087610;28;20068;-82
2023/08/22 03:02:51;;;;;;;13.98;8.93;;;;;;;;;;5084251;28;20048;-83
2023/08/22 03:05:17;;;;;;;13.30;9.27;;;;;;;;;;5090136;28;20028;-82
2023/08/22 03:07:43;;;;;;;11.60;9.05;;;;;;;;;;5067220;28;20048;-82
2023/08/22 03:10:09;;;;;;;11.70;8.18;;;;;;;;;;5070132;28;20052;-82
2023/08/22 03:12:35;;;;;;;13.10;8.10;;;;;;;;;;5068504;28;20102;-83
2023/08/22 03:15:02;;;;;;;12.77;9.00;;;;;;;;;;5065529;28;20050;-83
2023/08/22 03:17:28;;;;;;;12.05;8.63;;;;;;;;;;5068805;28;20094;-82
2023/08/22 03:19:54;;;;;;;11.95;8.10;;;;;;;;;;5066456;28;20049;-82
2023/08/22 03:22:20;;;;;;;10.57;8.25;;;;;;;;;;5069165;28;20086;-82
2023/08/22 03:24:46;;;;;;;11.60;7.72;;;;;;;;;;5065395;28;20423;-83
2023/08/22 03:27:12;;;;;;;13.18;8.07;;;;;;;;;;5060354;28;20123;-83
2023/08/22 03:29:38;;;;;;;10.00;7.45;;;;;;;;;;5054381;28;20131;-83
2023/08/22 03:32:04;;;;;;;10.00;7.45;;;;;;;;;;5059179;28;20376;-83
2023/08/22 03:34:31;;;;;;;9.25;6.57;;;;;;;;;;5062839;28;20040;-83
2023/08/22 03:36:57;;;;;;;9.60;6.95;;;;;;;;;;5061833;28;20122;-83
2023/08/22 03:39:23;;;;;;;9.98;6.40;;;;;;;;;;5063267;28;20102;-83
2023/08/22 03:41:49;;;;;;;7.35;6.25;;;;;;;;;;5066952;28;20040;-82
2023/08/22 03:44:15;;;;;;;8.65;5.78;;;;;;;;;;5068457;28;20051;-83
2023/08/22 03:46:41;;;;;;;6.72;5.03;;;;;;;;;;5060758;28;20159;-83
2023/08/22 03:49:07;;;;;;;6.53;5.10;;;;;;;;;;5065257;28;20484;-83
2023/08/22 03:51:33;;;;;;;6.50;5.38;;;;;;;;;;5066661;28;20098;-83
2023/08/22 03:54:00;;;;;;;7.13;5.32;;;;;;;;;;5065845;28;20060;-83
2023/08/22 03:56:26;;;;;;;8.65;5.35;;;;;;;;;;5066839;28;20499;-83
2023/08/22 03:58:52;;;;;;;8.60;5.90;;;;;;;;;;5067108;28;20495;-83
2023/08/22 04:01:18;;;;;;;8.40;5.53;;;;;;;;;;5064464;28;20053;-83
2023/08/22 04:03:45;;;;;;;8.50;5.90;;;;;;;;;;5069595;28;20040;-84
2023/08/22 04:06:11;;;;;;;9.70;6.28;;;;;;;;;;5064997;28;20045;-82
2023/08/22 04:08:38;;;;;;;10.10;6.05;;;;;;;;;;5072828;28;20052;-83
2023/08/22 04:11:04;;;;;;;9.63;6.05;;;;;;;;;;5091910;28;20372;-83
2023/08/22 04:13:30;;;;;;;7.35;5.82;;;;;;;;;;5092103;28;20039;-83
2023/08/22 04:15:56;;;;;;;9.30;5.80;;;;;;;;;;5091923;28;20036;-83
2023/08/22 04:18:22;;;;;;;8.10;5.50;;;;;;;;;;5089221;28;20058;-83
2023/08/22 04:20:48;;;;;;;7.93;5.78;;;;;;;;;;5087488;28;20134;-83
2023/08/22 04:23:14;;;;;;;8.93;5.38;;;;;;;;;;5092679;28;20040;-84
2023/08/22 04:25:40;;;;;;;10.75;5.97;;;;;;;;;;5091627;28;20043;-84
2023/08/22 04:28:06;;;;;;;8.00;5.88;;;;;;;;;;5091353;28;20040;-83
2023/08/22 04:30:33;;;;;;;7.22;5.90;;;;;;;;;;5069174;28;20047;-84
2023/08/22 04:32:59;;;;;;;9.35;6.18;;;;;;;;;;5088217;28;20086;-84
2023/08/22 04:35:25;;;;;;;10.80;7.03;;;;;;;;;;5064866;28;20139;-84
2023/08/22 04:37:51;;;;;;;10.27;6.43;;;;;;;;;;5089243;28;20119;-84
2023/08/22 04:40:17;;;;;;;8.20;6.57;;;;;;;;;;5061699;28;20072;-83
2023/08/22 04:42:43;;;;;;;9.18;6.13;;;;;;;;;;5084160;28;20048;-84
2023/08/22 04:45:09;;;;;;;9.15;6.15;;;;;;;;;;5065562;28;20048;-84
2023/08/22 04:47:35;;;;;;;8.32;6.10;;;;;;;;;;5080524;28;20190;-85
2023/08/22 04:50:01;;;;;;;8.68;6.40;;;;;;;;;;5065495;28;20512;-84
2023/08/22 04:52:28;;;;;;;10.27;6.25;;;;;;;;;;5066619;28;20495;-84
2023/08/22 04:54:55;;;;;;;6.72;5.75;;;;;;;;;;5084273;28;20403;-84
2023/08/22 04:57:23;;;;;;;6.80;6.07;;;;;;;;;;5063375;28;20265;-83
2023/08/22 04:59:50;;;;;;;10.05;6.57;;;;;;;;;;5083069;28;20040;-84
2023/08/22 05:02:16;;;;;;;8.55;6.10;;;;;;;;;;5080858;28;20646;-84
2023/08/22 05:04:42;;;;;;;10.40;6.45;;;;;;;;;;5064842;28;20053;-84
2023/08/22 05:07:08;;;;;;;8.30;6.00;;;;;;;;;;5068539;28;20438;-84
2023/08/22 05:09:34;;;;;;;9.80;6.43;;;;;;;;;;5083202;28;20044;-84
2023/08/22 05:12:00;;;;;;;9.52;6.75;;;;;;;;;;5069534;28;20048;-84
2023/08/22 05:14:28;;;;;;;10.50;6.82;;;;;;;;;;5070513;28;20055;-84
2023/08/22 05:16:54;;;;;;;9.98;6.82;;;;;;;;;;5090266;28;20051;-84
2023/08/22 05:19:20;;;;;;;17.48;12.23;;;;;;;;;;5072471;28;20066;-84
2023/08/22 05:21:49;;;;;;;12.70;7.80;;;;;;;;;;5102878;28;20048;-84
2023/08/22 05:24:15;;;;;;;10.88;7.55;;;;;;;;;;5072823;28;20068;-85
2023/08/22 05:26:41;;;;;;;11.45;6.90;;;;;;;;;;5086992;28;20040;-85
2023/08/22 05:29:07;;;;;;;9.50;6.72;;;;;;;;;;5084084;28;20037;-84
2023/08/22 05:31:33;;;;;;;10.90;7.30;;;;;;;;;;5088839;28;20059;-85
2023/08/22 05:33:59;;;;;;;11.18;7.55;;;;;;;;;;5090376;28;20032;-85
2023/08/22 05:36:25;;;;;;;8.65;7.35;;;;;;;;;;5068922;28;20047;-85
2023/08/22 05:38:52;;;;;;;10.80;8.27;;;;;;;;;;5071218;28;20056;-85
2023/08/22 05:41:18;;;;;;;11.82;8.32;;;;;;;;;;5065292;28;20052;-83
2023/08/22 05:43:44;;;;;;;10.50;7.82;;;;;;;;;;5068647;28;20955;-84
2023/08/22 05:46:10;;;;;;;10.77;7.93;;;;;;;;;;5088817;28;20040;-83
2023/08/22 05:48:36;;;;;;;11.75;8.02;;;;;;;;;;5086389;28;20047;-85
2023/08/22 05:51:03;;;;;;;11.88;8.23;;;;;;;;;;5062153;28;20048;-83
2023/08/22 05:53:29;;;;;;;12.40;7.97;;;;;;;;;;5069489;28;20090;-83
2023/08/22 05:55:56;;;;;;;12.60;8.98;;;;;;;;;;5080583;28;20040;-82
2023/08/22 05:58:22;;;;;;;13.13;8.63;;;;;;;;;;5087668;28;20052;-84
2023/08/22 06:00:48;;;;;;;12.80;9.27;;;;;;;;;;5090011;28;20119;-84
2023/08/22 06:03:14;;;;;;;13.57;9.05;;;;;;;;;;5071760;28;20055;-84
2023/08/22 06:05:41;;;;;;;11.57;8.95;;;;;;;;;;5085646;28;20123;-83
2023/08/22 06:08:07;;;;;;;11.82;8.85;;;;;;;;;;5087184;28;20054;-83
2023/08/22 06:10:33;;;;;;;11.23;9.70;;;;;;;;;;5071890;28;20079;-84
2023/08/22 06:12:59;;;;;;;13.23;9.48;;;;;;;;;;5087480;28;20043;-84
2023/08/22 06:15:25;;;;;;;13.43;8.88;;;;;;;;;;5068865;28;20062;-84
2023/08/22 06:17:51;;;;;;;12.45;8.60;;;;;;;;;;5072091;28;20040;-83
2023/08/22 06:20:17;;;;;;;14.00;9.13;;;;;;;;;;5090990;28;20089;-83
2023/08/22 06:22:43;;;;;;;13.88;9.00;;;;;;;;;;5086782;28;20044;-84
2023/08/22 06:25:09;;;;;;;13.80;9.00;;;;;;;;;;5088712;28;20123;-83
2023/08/22 06:27:35;;;;;;;11.13;8.10;;;;;;;;;;5070352;28;20127;-85
2023/08/22 06:30:02;;;;;;;12.43;7.70;;;;;;;;;;5091641;28;20075;-85
2023/08/22 06:32:28;;;;;;;10.20;6.45;;;;;;;;;;5087050;28;20036;-84
2023/08/22 06:34:59;;;;;;;10.52;7.05;;;;;;;;;;5085393;28;20491;-84
2023/08/22 06:37:25;;;;;;;12.43;7.68;;;;;;;;;;5087366;28;20495;-83
2023/08/22 06:39:51;;;;;;;7.82;6.18;;;;;;;;;;5083592;28;20052;-84
2023/08/22 06:42:17;;;;;;;13.15;6.63;;;;;;;;;;5087362;28;20040;-83
2023/08/22 06:44:43;;;;;;;10.85;6.57;;;;;;;;;;5083202;28;20146;-85
2023/08/22 06:47:09;;;;;;;10.05;6.38;;;;;;;;;;5067898;28;20127;-85
2023/08/22 06:49:35;;;;;;;10.70;6.65;;;;;;;;;;5070260;28;20056;-84
2023/08/22 06:52:01;;;;;;;8.98;6.25;;;;;;;;;;5068056;28;20048;-83
2023/08/22 06:54:27;;;;;;;10.52;6.50;;;;;;;;;;5071933;28;20051;-84
2023/08/22 06:56:54;;;;;;;9.73;6.82;;;;;;;;;;5087681;28;20035;-83
2023/08/22 06:59:20;;;;;;;9.57;6.70;;;;;;;;;;5081942;28;20052;-82
2023/08/22 07:01:46;;;;;;;14.40;6.97;;;;;;;;;;5065594;28;20404;-83
2023/08/22 07:04:12;;;;;;;11.38;6.63;;;;;;;;;;5090994;28;20067;-83
2023/08/22 07:06:38;;;;;;;12.55;6.43;;;;;;;;;;5086452;28;20140;-84
2023/08/22 07:09:04;;;;;;;10.98;6.35;;;;;;;;;;5064070;28;20040;-83
2023/08/22 07:11:30;;;;;;;13.02;6.95;;;;;;;;;;5084239;28;20044;-84
2023/08/22 07:13:56;;;;;;;11.15;6.57;;;;;;;;;;5061179;28;20036;-84
2023/08/22 07:16:22;;;;;;;12.55;6.40;;;;;;;;;;5081830;28;20155;-86
2023/08/22 07:18:48;;;;;;;10.93;6.78;;;;;;;;;;5066482;28;20036;-83
2023/08/22 07:21:14;;;;;;;15.95;6.68;;;;;;;;;;5082990;28;20328;-84
2023/08/22 07:23:40;;;;;;;13.57;7.53;;;;;;;;;;5062855;28;20060;-83
2023/08/22 07:26:06;;;;;;;11.60;6.78;;;;;;;;;;5079098;28;20052;-82
2023/08/22 07:28:33;;;;;;;10.20;6.50;;;;;;;;;;5080125;28;20069;-81
2023/08/22 07:31:00;;;;;;;10.65;6.78;;;;;;;;;;5087681;28;20048;-82
2023/08/22 07:33:26;;;;;;;12.73;7.38;;;;;;;;;;5090133;28;20073;-84
2023/08/22 07:35:52;;;;;;;12.18;7.13;;;;;;;;;;5070525;28;20047;-85
2023/08/22 07:38:18;;;;;;;13.43;7.32;;;;;;;;;;5091249;28;20047;-86
2023/08/22 07:40:44;;;;;;;13.52;8.27;;;;;;;;;;5094075;28;20040;-88
2023/08/22 07:43:10;;;;;;;12.98;8.43;;;;;;;;;;5069817;28;20089;-87
2023/08/22 07:45:36;;;;;;;14.32;8.15;;;;;;;;;;5093902;28;20115;-86
2023/08/22 07:48:03;;;;;;;13.45;8.65;;;;;;;;;;5099589;28;20353;-85
2023/08/22 07:50:30;;;;;;;17.67;9.98;;;;;;;;;;5093435;28;20483;-86
2023/08/22 07:52:57;;;;;;;17.77;9.77;;;;;;;;;;5093246;28;20036;-84
2023/08/22 07:55:26;;;;;;;16.02;10.00;;;;;;;;;;5092176;28;20051;-84
2023/08/22 07:57:53;;;;;;;14.95;10.13;;;;;;;;;;5089064;28;20051;-86
2023/08/22 08:00:19;;;;;;;16.30;10.20;;;;;;;;;;5092971;28;20044;-84
2023/08/22 08:02:45;;;;;;;16.55;10.68;;;;;;;;;;5092676;28;20043;-85
2023/08/22 08:05:14;;;;;;;16.10;8.40;;;;;;;;;;5093498;28;20051;-83
2023/08/22 08:07:40;;;;;;;10.15;6.07;;;;;;;;;;5070252;28;20111;-83
2023/08/22 08:10:07;;;;;;;15.57;7.00;;;;;;;;;;5070475;28;20047;-85
2023/08/22 08:12:34;;;;;;;9.80;5.90;;;;;;;;;;5067364;28;20090;-84
2023/08/22 08:15:00;;;;;;;12.40;7.43;;;;;;;;;;5071610;28;20094;-83
2023/08/22 08:17:26;;;;;;;13.50;7.10;;;;;;;;;;5068127;28;20480;-85
2023/08/22 08:19:52;;;;;;;13.77;7.18;;;;;;;;;;5073193;28;20491;-83
2023/08/22 08:22:18;;;;;;;14.75;7.47;;;;;;;;;;5073719;28;20116;-82
2023/08/22 08:24:44;;;;;;;13.25;7.13;;;;;;;;;;5068651;28;20040;-83
2023/08/22 08:27:10;;;;;;;15.63;7.47;;;;;;;;;;5069699;28;20049;-82
2023/08/22 08:29:36;;;;;;;16.15;7.68;;;;;;;;;;5062933;28;20064;-84
2023/08/22 08:32:03;;;;;;;11.90;7.07;;;;;;;;;;5072705;28;20068;-81
2023/08/22 08:34:29;;;;;;;13.32;7.20;;;;;;;;;;5071416;28;20047;-85
2023/08/22 08:36:55;;;;;;;14.90;7.32;;;;;;;;;;5073049;28;20072;-84
2023/08/22 08:39:21;;;;;;;15.50;7.22;;;;;;;;;;5070730;28;20068;-86
2023/08/22 08:42:07;;;;;;;13.07;6.85;;;;;;;;;;5070543;28;20101;-86
2023/08/22 08:44:34;;;;;;;14.55;6.90;;;;;;;;;;5055065;28;20041;-84
2023/08/22 08:47:01;;;;;;;13.00;6.13;;;;;;;;;;5056537;28;20063;-85
2023/08/22 08:49:35;;;;;;;10.02;5.82;;;;;;;;;;5053566;28;20074;-85
2023/08/22 08:52:08;;;;;;;13.18;6.25;;;;;;;;;;5066012;28;20044;-84
2023/08/22 08:54:34;;;;;;;14.70;6.20;;;;;;;;;;5069631;28;20491;-85
2023/08/22 08:57:01;;;;;;;17.10;6.53;;;;;;;;;;5070361;28;20395;-83
2023/08/22 08:59:27;;;;;;;13.55;5.80;;;;;;;;;;5073250;28;20083;-85
2023/08/22 09:01:53;;;;;;;12.27;6.22;;;;;;;;;;5071479;28;20431;-83
2023/08/22 09:04:19;;;;;;;13.18;6.47;;;;;;;;;;5069686;28;20049;-83
2023/08/22 09:06:46;;;;;;;16.40;6.72;;;;;;;;;;5069630;28;20055;-86
2023/08/22 09:09:13;;;;;;;13.93;6.30;;;;;;;;;;5090299;28;20047;-87
2023/08/22 09:11:42;;;;;;;10.07;4.90;;;;;;;;;;5068407;28;21920;-87
2023/08/22 09:14:09;;;;;;;13.02;5.30;;;;;;;;;;5073484;28;20048;-86
2023/08/22 09:16:35;;;;;;;9.30;4.68;;;;;;;;;;5087121;28;20424;-86
2023/08/22 09:19:02;;;;;;;11.98;4.70;;;;;;;;;;5075204;28;20203;-86
2023/08/22 09:21:29;;;;;;;9.95;4.45;;;;;;;;;;5078084;28;20051;-85
2023/08/22 09:24:08;;;;;;;9.07;4.80;;;;;;;;;;5102451;28;20075;-87
2023/08/22 09:26:34;;;;;;;10.18;4.65;;;;;;;;;;5094353;28;20126;-87
2023/08/22 09:29:04;;;;;;;12.00;4.97;;;;;;;;;;5085473;28;22223;-87
2023/08/22 09:31:32;;;;;;;11.30;4.60;;;;;;;;;;5074467;28;20105;-87
2023/08/22 09:33:58;;;;;;;9.50;5.13;;;;;;;;;;5096573;28;20563;-86
2023/08/22 09:36:25;;;;;;;13.68;4.70;;;;;;;;;;5082172;28;20059;-87
2023/08/22 09:38:55;;;;;;;10.98;4.82;;;;;;;;;;5075103;28;20040;-87
2023/08/22 09:41:24;;;;;;;10.55;4.80;;;;;;;;;;5098992;28;20055;-87
2023/08/22 09:43:54;;;;;;;10.30;4.63;;;;;;;;;;5083733;28;20392;-87
2023/08/22 09:46:21;;;;;;;12.32;5.30;;;;;;;;;;5062957;28;20164;-86
2023/08/22 09:48:50;;;;;;;15.60;5.93;;;;;;;;;;5084413;28;20032;-86
2023/08/22 09:51:19;;;;;;;10.18;5.18;;;;;;;;;;5084895;28;20142;-86
2023/08/22 09:53:52;;;;;;;12.95;5.85;;;;;;;;;;5083270;28;20683;-80
2023/08/22 09:56:19;;;;;;;11.75;5.65;;;;;;;;;;5082127;28;20047;-84
2023/08/22 09:58:46;;;;;;;14.57;6.50;;;;;;;;;;5084500;28;20044;-85
2023/08/22 10:01:16;;;;;;;12.40;5.90;;;;;;;;;;5089189;28;20075;-81
2023/08/22 10:03:46;;;;;;;12.95;5.88;;;;;;;;;;5087898;28;20054;-83
2023/08/22 10:06:13;;;;;;;13.45;5.65;;;;;;;;;;5097158;28;20078;-85
2023/08/22 10:08:45;;;;;;;15.55;6.88;;;;;;;;;;5060784;28;20434;-83
2023/08/22 10:11:12;;;;;;;14.85;7.72;;;;;;;;;;5090495;28;20048;-81
2023/08/22 10:13:39;;;;;;;12.95;7.25;;;;;;;;;;5088083;28;20418;-82
2023/08/22 10:16:05;;;;;;;12.63;6.90;;;;;;;;;;5085815;28;20076;-84
2023/08/22 10:18:31;;;;;;;14.55;7.07;;;;;;;;;;5091364;28;20635;-81
2023/08/22 10:20:58;;;;;;;11.73;6.18;;;;;;;;;;5089970;28;20059;-81
2023/08/22 10:23:42;;;;;;;17.50;7.75;;;;;;;;;;5098007;28;20043;-82
2023/08/22 10:26:09;;;;;;;13.48;5.72;;;;;;;;;;5063832;28;20048;-81
2023/08/22 10:28:44;;;;;;;11.93;6.40;;;;;;;;;;5087593;28;20032;-85
2023/08/22 10:31:11;;;;;;;14.50;7.88;;;;;;;;;;5086378;28;20083;-76
2023/08/22 10:33:38;;;;;;;14.98;8.48;;;;;;;;;;5091988;28;20048;-76
2023/08/22 10:36:09;;;;;;;14.27;7.10;;;;;;;;;;5071393;28;20051;-76
2023/08/22 10:38:48;;;;;;;16.42;8.48;;;;;;;;;;5083646;28;20846;-76
2023/08/22 10:41:14;;;;;;;12.65;7.28;;;;;;;;;;5070948;28;20405;-76
2023/08/22 10:43:40;;;;;;;11.35;6.43;;;;;;;;;;5070629;28;20052;-76
2023/08/22 10:46:06;;;;;;;16.05;7.72;;;;;;;;;;5087422;28;20070;-76
2023/08/22 10:48:32;;;;;;;12.32;6.75;;;;;;;;;;5085939;28;20044;-76
2023/08/22 10:51:06;;;;;;;14.30;6.88;;;;;;;;;;5067670;28;20170;-75
2023/08/22 10:53:41;;;;;;;13.00;6.25;;;;;;;;;;5085461;28;20047;-75
2023/08/22 10:56:37;;;;;;;14.77;6.63;;;;;;;;;;5066941;28;20130;-76
2023/08/22 10:59:03;;;;;;;16.88;7.07;;;;;;;;;;5056221;28;20048;-75
2023/08/22 11:01:49;;;;;;;14.10;7.13;;;;;;;;;;5065643;28;20048;-78
2023/08/22 11:04:16;;;;;;;11.80;6.22;;;;;;;;;;5058709;28;20135;-76
2023/08/22 11:06:44;;;;;;;15.38;6.35;;;;;;;;;;5082370;28;20113;-80
2023/08/22 11:09:17;;;;;;;12.88;5.68;;;;;;;;;;5068308;28;20040;-77
2023/08/22 11:11:48;;;;;;;10.35;5.25;;;;;;;;;;5071528;28;20044;-81
2023/08/22 11:14:17;;;;;;;12.13;4.63;;;;;;;;;;5063163;28;20483;-76
2023/08/22 11:16:43;;;;;;;9.63;4.55;;;;;;;;;;5085867;28;20054;-79
2023/08/22 11:19:09;;;;;;;9.43;4.70;;;;;;;;;;5090576;28;20036;-79
2023/08/22 11:21:38;;;;;;;9.52;4.57;;;;;;;;;;5065959;28;20484;-76
2023/08/22 11:24:04;;;;;;;10.23;4.30;;;;;;;;;;5081349;28;20479;-76
2023/08/22 11:26:30;;;;;;;7.38;4.20;;;;;;;;;;5082354;28;20043;-76
2023/08/22 11:28:56;;;;;;;10.52;4.07;;;;;;;;;;5067728;28;20399;-76
2023/08/22 11:31:22;;;;;;;6.13;4.10;;;;;;;;;;5058993;28;20182;-75
2023/08/22 11:33:50;;;;;;;9.30;4.45;;;;;;;;;;5064812;28;20040;-75
2023/08/22 11:36:16;;;;;;;10.10;4.13;;;;;;;;;;5067901;28;20392;-77
2023/08/22 11:38:43;;;;;;;8.68;4.38;;;;;;;;;;5081660;28;20052;-74
2023/08/22 11:41:09;;;;;;;10.35;4.65;;;;;;;;;;5072970;28;20052;-74
2023/08/22 11:43:35;;;;;;;10.43;4.95;;;;;;;;;;5070966;28;20380;-74
2023/08/22 11:46:10;;;;;;;9.45;4.60;;;;;;;;;;5070791;28;20105;-74
2023/08/22 11:48:36;;;;;;;14.10;6.40;;;;;;;;;;5084810;28;20486;-74
2023/08/22 11:51:02;;;;;;;8.15;4.18;;;;;;;;;;5051442;28;20567;-74
2023/08/22 11:53:31;;;;;;;8.13;3.90;;;;;;;;;;5084067;28;20399;-74
2023/08/22 11:56:00;;;;;;;8.73;4.13;;;;;;;;;;5079864;28;20040;-74
2023/08/22 11:58:26;;;;;;;9.52;4.20;;;;;;;;;;5089323;28;20047;-75
2023/08/22 12:00:55;;;;;;;20.25;4.72;;;;;;;;;;5090288;28;20040;-74
2023/08/22 12:03:21;;;;;;;8.52;4.68;;;;;;;;;;5090476;28;20040;-74
2023/08/22 12:05:50;;;;;;;10.15;4.70;;;;;;;;;;5071845;28;20475;-74
2023/08/22 12:08:16;;;;;;;23.50;5.72;;;;;;;;;;5063701;28;20056;-74
2023/08/22 12:10:49;;;;;;;11.02;4.85;;;;;;;;;;5070216;28;20422;-74
2023/08/22 12:13:17;;;;;;;12.00;5.10;;;;;;;;;;5067388;28;20099;-74
2023/08/22 12:15:43;;;;;;;8.23;4.10;;;;;;;;;;5069514;28;20041;-74
2023/08/22 12:18:10;;;;;;;7.15;4.30;;;;;;;;;;5069455;28;20132;-74
2023/08/22 12:20:40;;;;;;;8.65;4.50;;;;;;;;;;5090622;28;20048;-75
2023/08/22 12:23:07;;;;;;;11.25;4.57;;;;;;;;;;5085553;28;20088;-75
2023/08/22 12:25:34;;;;;;;9.10;4.80;;;;;;;;;;5065643;28;20511;-75
2023/08/22 12:28:03;;;;;;;7.10;4.60;;;;;;;;;;5059203;28;20111;-74
2023/08/22 12:30:30;;;;;;;7.65;4.68;;;;;;;;;;5069579;28;20049;-75
2023/08/22 12:32:56;;;;;;;10.63;4.75;;;;;;;;;;5073071;28;20045;-74
2023/08/22 12:35:22;;;;;;;7.85;4.45;;;;;;;;;;5072342;28;20048;-74
2023/08/22 12:37:48;;;;;;;11.32;4.18;;;;;;;;;;5073088;28;20163;-75
2023/08/22 12:40:15;;;;;;;8.90;4.95;;;;;;;;;;5073609;28;20127;-75
2023/08/22 12:42:41;;;;;;;11.27;4.60;;;;;;;;;;5061717;28;20111;-75
2023/08/22 12:45:10;;;;;;;9.00;5.00;;;;;;;;;;5071770;28;20396;-75
2023/08/22 12:47:37;;;;;;;7.82;4.60;;;;;;;;;;5088896;28;20093;-75
2023/08/22 12:50:03;;;;;;;8.60;4.95;;;;;;;;;;5059879;28;20087;-75
2023/08/22 12:52:29;;;;;;;10.93;4.60;;;;;;;;;;5053808;28;20459;-74
2023/08/22 12:54:55;;;;;;;7.85;4.75;;;;;;;;;;5070329;28;20480;-74
2023/08/22 12:57:21;;;;;;;6.93;3.90;;;;;;;;;;5074331;28;20044;-74
2023/08/22 12:59:47;;;;;;;8.60;4.50;;;;;;;;;;5057026;28;20048;-75
2023/08/22 13:02:13;;;;;;;8.88;4.00;;;;;;;;;;5061186;28;20044;-74
2023/08/22 13:04:39;;;;;;;8.48;3.67;;;;;;;;;;5073648;28;20049;-74
2023/08/22 13:07:06;;;;;;;6.30;3.58;;;;;;;;;;5082631;28;20090;-74
2023/08/22 13:09:33;;;;;;;8.18;3.67;;;;;;;;;;5101229;28;20553;-75
2023/08/22 13:11:59;;;;;;;6.50;3.47;;;;;;;;;;5072231;28;20043;-75
2023/08/22 13:14:25;;;;;;;6.80;3.80;;;;;;;;;;5065943;28;20059;-75
2023/08/22 13:16:51;;;;;;;7.72;3.42;;;;;;;;;;5075329;28;20036;-74
2023/08/22 13:19:17;;;;;;;10.13;4.13;;;;;;;;;;5057837;28;20053;-75
2023/08/22 13:21:43;;;;;;;7.93;3.60;;;;;;;;;;5054670;28;20048;-74
2023/08/22 13:24:09;;;;;;;5.35;3.47;;;;;;;;;;5076403;28;20444;-74
2023/08/22 13:26:35;;;;;;;4.93;3.10;;;;;;;;;;5092078;28;20459;-75
2023/08/22 13:29:01;;;;;;;5.82;3.33;;;;;;;;;;5058370;28;20490;-75
2023/08/22 13:31:28;;;;;;;10.27;3.70;;;;;;;;;;5093022;28;20514;-75
2023/08/22 13:33:54;;;;;;;5.50;3.50;;;;;;;;;;5091786;28;20054;-75
2023/08/22 13:36:20;;;;;;;4.55;3.45;;;;;;;;;;5065485;28;20434;-75
2023/08/22 13:38:46;;;;;;;7.32;3.60;;;;;;;;;;5058793;28;20040;-75
2023/08/22 13:41:12;;;;;;;6.60;3.45;;;;;;;;;;5074396;28;20133;-75
2023/08/22 13:43:39;;;;;;;5.38;3.67;;;;;;;;;;5091912;28;20468;-75
2023/08/22 13:46:06;;;;;;;7.60;3.72;;;;;;;;;;5068687;28;20514;-75
2023/08/22 13:48:32;;;;;;;7.97;3.72;;;;;;;;;;5087323;28;20336;-74
2023/08/22 13:50:58;;;;;;;9.88;4.32;;;;;;;;;;5072116;28;20052;-75
2023/08/22 13:53:25;;;;;;;9.70;3.58;;;;;;;;;;5080295;28;20050;-75
2023/08/22 13:55:51;;;;;;;10.27;4.53;;;;;;;;;;5073750;28;20113;-75
2023/08/22 13:58:17;;;;;;;6.63;3.63;;;;;;;;;;5085479;28;20069;-75
2023/08/22 14:00:43;;;;;;;5.22;3.13;;;;;;;;;;5074726;28;20544;-75
2023/08/22 14:03:09;;;;;;;9.13;3.38;;;;;;;;;;5073542;28;20044;-74
2023/08/22 14:05:35;;;;;;;10.13;3.72;;;;;;;;;;5074654;28;20055;-75
2023/08/22 14:08:01;;;;;;;6.72;3.63;;;;;;;;;;5087587;28;20423;-75
2023/08/22 14:10:27;;;;;;;6.30;3.55;;;;;;;;;;5071560;28;20074;-75
2023/08/22 14:12:53;;;;;;;6.65;3.47;;;;;;;;;;5073239;28;20041;-75
2023/08/22 14:15:20;;;;;;;8.27;3.13;;;;;;;;;;5072860;28;20044;-75
2023/08/22 14:17:46;;;;;;;6.80;3.22;;;;;;;;;;5053530;28;20040;-75
2023/08/22 14:20:12;;;;;;;7.00;2.85;;;;;;;;;;5066593;28;20143;-75
2023/08/22 14:22:38;;;;;;;7.72;2.92;;;;;;;;;;5080784;28;20044;-75
2023/08/22 14:25:04;;;;;;;5.28;2.58;;;;;;;;;;5091091;28;20078;-75
2023/08/22 14:27:30;;;;;;;4.63;2.60;;;;;;;;;;5082853;28;20036;-75
2023/08/22 14:29:56;;;;;;;5.20;2.80;;;;;;;;;;5085584;28;20040;-75
2023/08/22 14:32:25;;;;;;;4.57;2.28;;;;;;;;;;5073786;28;20423;-75